D/T METAR WX W/DIR W/SPE G/SPE TEMP DEWP
16/01/19 03:20 EGPC 160320Z AUTO 27015KT 9999 -RA FEW021/// BKN027/// 06/04 Q0991 -RA W (270°) 17.3mph 6°C 4°C
16/01/19 02:20 EGPC 160220Z AUTO 27012KT 9999 -RA BKN024/// 06/04 Q0991 -RA W (270°) 13.8mph 6°C 4°C
16/01/19 01:50 EGPC 160150Z AUTO 27014KT 9999 -RA SCT025/// 06/04 Q0990 -RA W (270°) 16.1mph 6°C 4°C
16/01/19 00:50 EGPC 160050Z AUTO 27011KT 9999 -RA SCT034/// SCT042/// 07/04 Q0991 -RA W (270°) 12.7mph 7°C 4°C
16/01/19 00:20 EGPC 160020Z AUTO 28020KT 9999 -RA FEW033/// 08/05 Q0991 -RA W (280°) 23.0mph 8°C 5°C
15/01/19 23:50 EGPC 152350Z AUTO 27012KT 9999 FEW016/// BKN022/// 09/06 Q0990 W (270°) 13.8mph 9°C 6°C
15/01/19 23:20 EGPC 152320Z AUTO 22007KT 190V250 9999 BKN024/// OVC035/// 08/07 Q0991 SW (220°) 8.1mph 8°C 7°C
15/01/19 22:50 EGPC 152250Z AUTO 22010KT 9999 -RA FEW006/// SCT018/// BKN022/// 08/07 Q0991 -RA SW (220°) 11.5mph 8°C 7°C
15/01/19 22:20 EGPC 152220Z AUTO 22011KT 9999 -RA BKN004/// OVC023/// 08/07 Q0991 -RA SW (220°) 12.7mph 8°C 7°C
15/01/19 21:50 EGPC 152150Z AUTO 22012KT 9999 BKN023/// OVC029/// 08/07 Q0992 SW (220°) 13.8mph 8°C 7°C
15/01/19 21:20 EGPC 152120Z AUTO 21011KT 9999 -RA BKN026/// OVC047/// 08/06 Q0992 -RA SSW (210°) 12.7mph 8°C 6°C
15/01/19 20:50 EGPC 152050Z AUTO 21010KT 9999 BKN021/// BKN030/// BKN040/// 08/06 Q0993 SSW (210°) 11.5mph 8°C 6°C
15/01/19 20:20 EGPC 152020Z 21007KT 9999 SCT029 08/06 Q0994 SSW (210°) 8.1mph 8°C 6°C
15/01/19 19:50 EGPC 151950Z 22008KT 190V250 9999 SCT029 08/06 Q0994 SW (220°) 9.2mph 8°C 6°C
15/01/19 19:20 EGPC 151920Z 21008KT 170V240 9999 SCT029 08/06 Q0995 SSW (210°) 9.2mph 8°C 6°C
15/01/19 18:50 EGPC 151850Z 24012KT 9999 SCT031 08/06 Q0996 WSW (240°) 13.8mph 8°C 6°C
15/01/19 18:20 EGPC 151820Z 23009KT 190V250 9999 SCT031 08/06 Q0997 SW (230°) 10.4mph 8°C 6°C
15/01/19 17:50 EGPC 151750Z 21008KT 9999 SCT031 08/06 Q0997 SSW (210°) 9.2mph 8°C 6°C
15/01/19 17:20 EGPC 151720Z 22010KT 190V250 9999 FEW005 BKN030 07/06 Q0997 SW (220°) 11.5mph 7°C 6°C
15/01/19 16:50 EGPC 151650Z 21009KT 9999 -RADZ BKN005 BKN025 07/06 Q0998 -RA -DZ SSW (210°) 10.4mph 7°C 6°C
15/01/19 16:20 EGPC 151620Z 20007KT 150V240 5000 -RADZ BKN002 06/06 Q0998 -RA -DZ SSW (200°) 8.1mph 6°C 6°C
15/01/19 15:50 EGPC 151550Z 16005KT 4000 -RADZ BKN003 06/06 Q0999 -RA -DZ SSE (160°) 5.8mph 6°C 6°C
15/01/19 15:20 EGPC 151520Z 19005KT 4000 -RADZ BKN003 BKN010 06/06 Q1000 -RA -DZ S (190°) 5.8mph 6°C 6°C
15/01/19 14:50 EGPC 151450Z 17005KT 140V200 9000 -RADZ SCT005 BKN011 06/06 Q1000 -RA -DZ S (170°) 5.8mph 6°C 6°C
15/01/19 14:20 EGPC 151420Z 19001KT 9000 -RADZ SCT005 BKN011 06/05 Q1001 -RA -DZ S (190°) 1.2mph 6°C 5°C
15/01/19 13:50 EGPC 151350Z 26002KT 9000 -RADZ SCT005 BKN049 06/05 Q1001 -RA -DZ W (260°) 2.3mph 6°C 5°C
15/01/19 13:20 EGPC 151320Z 28006KT 9000 -RADZ SCT005 BKN040 06/05 Q1002 -RA -DZ W (280°) 6.9mph 6°C 5°C
15/01/19 12:50 EGPC 151250Z 28006KT 9000 -RADZ SCT005 BKN020 06/05 Q1002 -RA -DZ W (280°) 6.9mph 6°C 5°C
15/01/19 12:20 EGPC 151220Z 28007KT 9999 -RADZ FEW008 BKN032 06/05 Q1003 -RA -DZ W (280°) 8.1mph 6°C 5°C
15/01/19 11:50 EGPC 151150Z 28008KT 9000 -RADZ FEW019 SCT023 BKN037 06/05 Q1003 -RA -DZ W (280°) 9.2mph 6°C 5°C
15/01/19 11:20 EGPC 151120Z 27005KT 9000 -RADZ FEW019 SCT023 BKN037 06/05 Q1003 -RA -DZ W (270°) 5.8mph 6°C 5°C
15/01/19 10:50 EGPC 151050Z 27007KT 9000 -RADZ FEW019 SCT023 BKN037 06/05 Q1003 -RA -DZ W (270°) 8.1mph 6°C 5°C
15/01/19 10:20 EGPC 151020Z 27007KT 9999 -DZ FEW019 SCT023 BKN035 06/05 Q1004 -DZ W (270°) 8.1mph 6°C 5°C
15/01/19 09:20 EGPC 150920Z 27009KT 9999 -RADZ FEW012 BKN028 07/05 Q1004 -RA -DZ W (270°) 10.4mph 7°C 5°C
15/01/19 08:50 EGPC 150850Z 28012KT 9999 FEW008 BKN028 07/04 Q1004 W (280°) 13.8mph 7°C 4°C
15/01/19 08:20 EGPC 150820Z 28015KT 9999 FEW008 SCT022 06/05 Q1003 W (280°) 17.3mph 6°C 5°C
15/01/19 07:50 EGPC 150750Z 28014KT 9999 FEW008 SCT022 06/05 Q1003 W (280°) 16.1mph 6°C 5°C
15/01/19 07:20 EGPC 150720Z 28012KT 9999 FEW008 SCT022 06/05 Q1004 W (280°) 13.8mph 6°C 5°C
15/01/19 06:50 EGPC 150650Z 29013KT 9999 -RA FEW008 SCT022 07/04 Q1004 -RA WNW (290°) 15.0mph 7°C 4°C
15/01/19 05:50 EGPC 150550Z AUTO 26009KT 9999 -RA NCD 07/04 Q1003 -RA W (260°) 10.4mph 7°C 4°C
15/01/19 05:20 EGPC 150520Z AUTO 29017KT 9999 -RA NCD 07/04 Q1003 REDZ -RA WNW (290°) 19.6mph 7°C 4°C
15/01/19 04:50 EGPC 150450Z AUTO 29021KT 9999 -RA NCD 07/05 Q1003 -RA WNW (290°) 24.2mph 7°C 5°C
15/01/19 04:20 EGPC 150420Z AUTO 30024KT 9999 BKN016/// BKN023/// BKN032/// 08/06 Q1003 WNW (300°) 27.6mph 8°C 6°C
15/01/19 03:50 EGPC 150350Z AUTO 29023KT 9999 FEW006/// BKN014/// BKN023/// 09/07 Q1003 WNW (290°) 26.5mph 9°C 7°C
15/01/19 03:20 EGPC 150320Z AUTO 30028KT 9999 -RA BKN003/// BKN015/// OVC021/// 09/08 Q1003 RERA -RA WNW (300°) 32.2mph 9°C 8°C
15/01/19 02:50 EGPC 150250Z AUTO 27013KT 9999 BKN014/// OVC021/// 10/08 Q1003 W (270°) 15.0mph 10°C 8°C
15/01/19 02:20 EGPC 150220Z AUTO 26012KT 9999 BKN023/// 09/07 Q1003 W (260°) 13.8mph 9°C 7°C
15/01/19 01:50 EGPC 150150Z AUTO 26012KT 9999 SCT030/// 09/07 Q1003 W (260°) 13.8mph 9°C 7°C
15/01/19 01:20 EGPC 150120Z AUTO 25014KT 9999 FEW037/// 09/07 Q1003 WSW (250°) 16.1mph 9°C 7°C
15/01/19 00:50 EGPC 150050Z AUTO 25014KT 9999 -RA FEW034/// 08/07 Q1004 -RA WSW (250°) 16.1mph 8°C 7°C
15/01/19 00:20 EGPC 150020Z AUTO 24011KT 9999 -RA SCT049/// 08/06 Q1004 -RA WSW (240°) 12.7mph 8°C 6°C
14/01/19 23:50 EGPC 142350Z AUTO 24009KT 9999 -RA FEW042/// 07/06 Q1005 -RA WSW (240°) 10.4mph 7°C 6°C
14/01/19 22:50 EGPC 142250Z AUTO 22008KT 9999 -RA SCT023/// SCT040/// 06/05 Q1006 -RA SW (220°) 9.2mph 6°C 5°C
14/01/19 22:20 EGPC 142220Z AUTO 22010KT 9999 -RA BKN022/// BKN026/// 06/05 Q1006 -RA SW (220°) 11.5mph 6°C 5°C
14/01/19 21:50 EGPC 142150Z AUTO 22010KT 190V250 9999 -RA BKN025/// BKN029/// 06/04 Q1007 -RA SW (220°) 11.5mph 6°C 4°C
14/01/19 21:20 EGPC 142120Z AUTO 22009KT 9999 -RA SCT040/// 06/04 Q1007 -RA SW (220°) 10.4mph 6°C 4°C
14/01/19 20:50 EGPC 142050Z AUTO 23006KT 190V270 9999 -RA BKN040/// 06/04 Q1008 -RA SW (230°) 6.9mph 6°C 4°C
14/01/19 20:20 EGPC 142020Z 24006KT 9999 FEW010 SCT044 05/04 Q1009 WSW (240°) 6.9mph 5°C 4°C
14/01/19 19:50 EGPC 141950Z 23005KT 9999 FEW010 SCT025 05/03 Q1009 SW (230°) 5.8mph 5°C 3°C
14/01/19 19:20 EGPC 141920Z 23006KT 9999 FEW010 BKN022 05/03 Q1010 SW (230°) 6.9mph 5°C 3°C
14/01/19 18:50 EGPC 141850Z 23005KT 9999 FEW010 SCT022 05/02 Q1010 SW (230°) 5.8mph 5°C 2°C
14/01/19 18:20 EGPC 141820Z 24006KT 9999 BKN029 05/02 Q1011 WSW (240°) 6.9mph 5°C 2°C
14/01/19 17:50 EGPC 141750Z 25005KT 9999 BKN034 04/02 Q1011 WSW (250°) 5.8mph 4°C 2°C
14/01/19 17:20 EGPC 141720Z 24005KT 9999 SCT034 04/02 Q1011 WSW (240°) 5.8mph 4°C 2°C
14/01/19 16:50 EGPC 141650Z 24006KT 9999 SCT034 04/02 Q1012 WSW (240°) 6.9mph 4°C 2°C
14/01/19 16:20 EGPC 141620Z 24005KT 9999 VCSH SCT032 04/02 Q1012 VCSH WSW (240°) 5.8mph 4°C 2°C
14/01/19 15:50 EGPC 141550Z 26008KT 9999 -SHRA SCT032 04/02 Q1012 -SHRA W (260°) 9.2mph 4°C 2°C
14/01/19 15:20 EGPC 141520Z 25006KT 9999 VCSH SCT035 04/02 Q1012 VCSH WSW (250°) 6.9mph 4°C 2°C
14/01/19 14:20 EGPC 141420Z 26009KT 9999 VCSH SCT027 03/01 Q1012 VCSH W (260°) 10.4mph 3°C 1°C
14/01/19 13:50 EGPC 141350Z 27012KT 9999 VCSH SCT026 03/01 Q1012 VCSH W (270°) 13.8mph 3°C 1°C
14/01/19 13:20 EGPC 141320Z 26013KT 9999 VCSH SCT026 04/01 Q1013 VCSH W (260°) 15.0mph 4°C 1°C
14/01/19 12:50 EGPC 141250Z 25011KT 9999 SCT021 04/M00 Q1013 WSW (250°) 12.7mph 4°C 0°C
14/01/19 12:20 EGPC 141220Z 24007KT 200V270 9999 BKN037 03/M01 Q1013 WSW (240°) 8.1mph 3°C -1°C
14/01/19 11:50 EGPC 141150Z 23007KT 190V260 9999 BKN040 03/M01 Q1014 SW (230°) 8.1mph 3°C -1°C
14/01/19 11:20 EGPC 141120Z 24006KT 9999 FEW016 03/M01 Q1014 WSW (240°) 6.9mph 3°C -1°C
14/01/19 10:50 EGPC 141050Z 25008KT 9999 FEW028 02/M01 Q1014 WSW (250°) 9.2mph 2°C -1°C
14/01/19 10:20 EGPC 141020Z 25005KT 9999 FEW028 01/M01 Q1014 WSW (250°) 5.8mph 1°C -1°C
14/01/19 09:50 EGPC 140950Z 25004KT 9999 FEW028 01/M02 Q1015 WSW (250°) 4.6mph 1°C -2°C
14/01/19 09:20 EGPC 140920Z 24005KT 9999 VCSH FEW023 00/M02 Q1015 VCSH WSW (240°) 5.8mph 0°C -2°C
14/01/19 08:50 EGPC 140850Z 25006KT 9999 NSC 00/M02 Q1015 WSW (250°) 6.9mph 0°C -2°C
14/01/19 08:20 EGPC 140820Z 26005KT 9999 FEW044 00/M01 Q1015 W (260°) 5.8mph 0°C -1°C
14/01/19 07:50 EGPC 140750Z 27005KT 9999 FEW044 00/M01 Q1015 W (270°) 5.8mph 0°C -1°C
14/01/19 07:20 EGPC 140720Z 27005KT 9999 FEW044 01/M02 Q1015 W (270°) 5.8mph 1°C -2°C
14/01/19 06:50 EGPC 140650Z 26004KT 9999 SCT046 01/M02 Q1015 W (260°) 4.6mph 1°C -2°C
14/01/19 06:20 EGPC 140620Z AUTO 28005KT 9999 -RA BKN049/// 01/M02 Q1015 REFZRA -RA W (280°) 5.8mph 1°C -2°C
14/01/19 05:50 EGPC 140550Z AUTO 33006KT 9999 -RA FEW047/// 00/M03 Q1015 -RA NNW (330°) 6.9mph 0°C -3°C
14/01/19 05:20 EGPC 140520Z AUTO 33008KT 9999 -RA NCD 01/M03 Q1015 -RA NNW (330°) 9.2mph 1°C -3°C
14/01/19 04:50 EGPC 140450Z AUTO 33009KT 9999 -RA NCD 01/M02 Q1015 -RA NNW (330°) 10.4mph 1°C -2°C
14/01/19 04:20 EGPC 140420Z AUTO 33008KT 9999 -RA NCD 01/M01 Q1015 -RA NNW (330°) 9.2mph 1°C -1°C
14/01/19 03:20 EGPC 140320Z AUTO 32009KT 9999 -RA FEW025/// BKN035/// 01/M01 Q1014 -RA NW (320°) 10.4mph 1°C -1°C
14/01/19 02:50 EGPC 140250Z AUTO 34014KT 9999 -RA SCT008/// SCT017/// 01/00 Q1014 -RA NNW (340°) 16.1mph 1°C 0°C
14/01/19 02:20 EGPC 140220Z AUTO 35015KT 9999 -SN FEW012/// SCT027/// BKN042/// 02/M00 Q1014 -SN N (350°) 17.3mph 2°C 0°C
14/01/19 01:50 EGPC 140150Z AUTO 34013KT 9999 -SN SCT033/// BKN040/// 02/M01 Q1014 -SN NNW (340°) 15.0mph 2°C -1°C
14/01/19 01:20 EGPC 140120Z AUTO 33010KT 9999 -RA SCT042/// 01/M01 Q1013 -RA NNW (330°) 11.5mph 1°C -1°C
14/01/19 00:50 EGPC 140050Z AUTO 31007KT 9999 -RA FEW029/// BKN036/// 01/M00 Q1013 -RA NW (310°) 8.1mph 1°C 0°C
14/01/19 00:20 EGPC 140020Z AUTO 31006KT 290V350 9999 -RA FEW015/// BKN027/// BKN034/// 01/M01 Q1013 -RA NW (310°) 6.9mph 1°C -1°C
13/01/19 23:50 EGPC 132350Z AUTO 31005KT 9999 -RA BKN046/// 01/M01 Q1012 -RA NW (310°) 5.8mph 1°C -1°C
13/01/19 23:20 EGPC 132320Z AUTO 32007KT 9999 -RA NCD 01/M01 Q1012 -RA NW (320°) 8.1mph 1°C -1°C
13/01/19 22:50 EGPC 132250Z AUTO 34008KT 9999 -RA FEW025/// SCT045/// 02/M00 Q1011 -RA NNW (340°) 9.2mph 2°C 0°C
13/01/19 22:20 EGPC 132220Z AUTO 01012KT 9999 -RA BKN011/// BKN019/// OVC041/// 02/00 Q1011 RESHGR -RA N (10°) 13.8mph 2°C 0°C
13/01/19 21:50 EGPC 132150Z AUTO 02016KT 9999 -RA FEW009/// SCT016/// BKN023/// 02/00 Q1010 -RA NNE (20°) 18.4mph 2°C 0°C
13/01/19 20:50 EGPC 132050Z AUTO 04016KT 9999 -RA SCT013/// BKN018/// OVC041/// 03/01 Q1009 -RA NE (40°) 18.4mph 3°C 1°C
13/01/19 20:20 EGPC 132020Z AUTO 04018KT 9999 -RA SCT018/// BKN022/// BKN032/// 03/00 Q1008 -RA NE (40°) 20.7mph 3°C 0°C
13/01/19 19:50 EGPC 131950Z AUTO 05016KT 9999 -RA FEW011/// BKN017/// BKN034/// 03/01 Q1007 -RA NE (50°) 18.4mph 3°C 1°C
13/01/19 18:50 EGPC 131850Z AUTO 05016KT 9999 -RA BKN004/// OVC012/// 04/02 Q1005 -RA NE (50°) 18.4mph 4°C 2°C
13/01/19 18:20 EGPC 131820Z AUTO 05018KT 5000 -RA SCT003/// BKN010/// OVC018/// 04/03 Q1004 -RA NE (50°) 20.7mph 4°C 3°C
13/01/19 17:50 EGPC 131750Z AUTO 05019KT 5000 -RA BKN004/// BKN013/// BKN019/// 04/03 Q1003 RERA -RA NE (50°) 21.9mph 4°C 3°C
13/01/19 17:20 EGPC 131720Z AUTO 32010KT 9999 -RA BKN027/// OVC044/// 06/04 Q1001 -RA NW (320°) 11.5mph 6°C 4°C
13/01/19 16:20 EGPC 131620Z 35014KT 9999 -RA FEW006 BKN014 05/04 Q1001 -RA N (350°) 16.1mph 5°C 4°C
13/01/19 15:50 EGPC 131550Z 32021G31KT 9999 VCSH SCT006 BKN032 06/04 Q1000 VCSH NW (320°) 24.2mph 35.7mph 6°C 4°C
13/01/19 15:20 EGPC 131520Z 30020KT 9999 -SHRA FEW008 SCT020 06/04 Q0999 -SHRA WNW (300°) 23.0mph 6°C 4°C
13/01/19 14:50 EGPC 131450Z 31021G35KT 9999 -SHRA FEW008 SCT020 06/04 Q0999 -SHRA NW (310°) 24.2mph 40.3mph 6°C 4°C
13/01/19 14:20 EGPC 131420Z 31023G34KT 9999 VCSH FEW018 SCT028 07/04 Q0999 VCSH NW (310°) 26.5mph 39.1mph 7°C 4°C
12/01/19 13:20 EGPC 121320Z AUTO 31031G41KT 8000 -RA SCT004/// BKN010/// BKN019/// 08/07 Q1007 RERA REDZ -RA NW (310°) 35.7mph 47.2mph 8°C 7°C
12/01/19 12:50 EGPC 121250Z AUTO 31025G40KT 5000 -RA SCT003/// BKN007/// 08/07 Q1007 RERA -RA NW (310°) 28.8mph 46.0mph 8°C 7°C
12/01/19 12:20 EGPC 121220Z AUTO 30025G39KT 9999 -RA FEW006/// SCT013/// BKN021/// 08/06 Q1007 -RA WNW (300°) 28.8mph 44.9mph 8°C 6°C
12/01/19 11:50 EGPC 121150Z AUTO 30028G42KT 9999 SCT005/// BKN011/// BKN020/// 07/06 Q1008 WNW (300°) 32.2mph 48.3mph 7°C 6°C
12/01/19 11:20 EGPC 121120Z AUTO 29021KT 9999 -RA FEW005/// BKN012/// BKN017/// 08/06 Q1008 RERA -RA WNW (290°) 24.2mph 8°C 6°C
12/01/19 10:50 EGPC 121050Z AUTO 29021KT 9999 SCT003/// BKN035/// BKN046/// 07/06 Q1008 RERA REDZ WNW (290°) 24.2mph 7°C 6°C
12/01/19 10:20 EGPC 121020Z AUTO 31019KT 4000 RA SCT004/// SCT014/// BKN020/// 07/06 Q1008 RA NW (310°) 21.9mph 7°C 6°C
12/01/19 09:50 EGPC 120950Z AUTO 29022G32KT 9999 -RA FEW022/// SCT039/// 07/05 Q1008 -RA WNW (290°) 25.3mph 36.8mph 7°C 5°C
12/01/19 09:20 EGPC 120920Z AUTO 29023KT 9999 -RA BKN017/// BKN025/// BKN033/// 07/05 Q1008 -RA WNW (290°) 26.5mph 7°C 5°C
12/01/19 08:50 EGPC 120850Z AUTO 29019KT 9999 -RA FEW005/// SCT020/// BKN029/// 07/05 Q1008 RERA -RA WNW (290°) 21.9mph 7°C 5°C
12/01/19 08:20 EGPC 120820Z AUTO 29021KT 9999 -RA FEW007/// SCT019/// BKN025/// 07/05 Q1008 -RA WNW (290°) 24.2mph 7°C 5°C
12/01/19 07:50 EGPC 120750Z AUTO 29022KT 9999 -RA SCT017/// BKN031/// 07/05 Q1008 -RA WNW (290°) 25.3mph 7°C 5°C
12/01/19 07:20 EGPC 120720Z AUTO 30019KT 9999 -RA BKN018/// BKN035/// 07/05 Q1008 -RA WNW (300°) 21.9mph 7°C 5°C
12/01/19 06:50 EGPC 120650Z AUTO 29022KT 9999 -RA FEW022/// SCT035/// 07/05 Q1008 -RA WNW (290°) 25.3mph 7°C 5°C
12/01/19 06:20 EGPC 120620Z AUTO 29023KT 9999 -RA FEW005/// SCT025/// BKN037/// 07/05 Q1008 -RA WNW (290°) 26.5mph 7°C 5°C
12/01/19 05:50 EGPC 120550Z AUTO 29021KT 9999 -RA FEW006/// SCT020/// BKN032/// 07/05 Q1008 -RA WNW (290°) 24.2mph 7°C 5°C
12/01/19 05:20 EGPC 120520Z AUTO 29024KT 9999 -RA FEW009/// SCT015/// BKN033/// 07/05 Q1009 -RA WNW (290°) 27.6mph 7°C 5°C
12/01/19 04:50 EGPC 120450Z AUTO 29024KT 9999 -RA SCT004/// BKN015/// BKN020/// 07/06 Q1009 -RA WNW (290°) 27.6mph 7°C 6°C
12/01/19 04:20 EGPC 120420Z AUTO 29022KT 9999 -RA FEW005/// SCT012/// BKN029/// 07/05 Q1009 RERA -RA WNW (290°) 25.3mph 7°C 5°C
12/01/19 03:50 EGPC 120350Z AUTO 28018KT 9999 -RA FEW016/// SCT025/// 06/05 Q1009 -RA W (280°) 20.7mph 6°C 5°C
12/01/19 03:20 EGPC 120320Z AUTO 29021KT 9999 -RA SCT016/// BKN026/// 07/05 Q1009 -RA WNW (290°) 24.2mph 7°C 5°C
12/01/19 02:50 EGPC 120250Z AUTO 28020KT 9999 -RA FEW006/// SCT021/// BKN039/// 06/05 Q1010 -RA W (280°) 23.0mph 6°C 5°C
12/01/19 02:20 EGPC 120220Z AUTO 28021KT 9999 -RA FEW023/// BKN028/// BKN035/// 06/05 Q1010 -RA W (280°) 24.2mph 6°C 5°C
12/01/19 01:50 EGPC 120150Z AUTO 28019G29KT 9999 -RA BKN027/// 06/04 Q1010 -RA W (280°) 21.9mph 33.4mph 6°C 4°C
12/01/19 01:20 EGPC 120120Z AUTO 29021KT 9999 -RA SCT021/// BKN029/// BKN046/// 07/05 Q1010 -RA WNW (290°) 24.2mph 7°C 5°C
12/01/19 00:50 EGPC 120050Z AUTO 27015KT 9999 -RA FEW021/// BKN030/// BKN040/// 07/05 Q1011 -RA W (270°) 17.3mph 7°C 5°C
12/01/19 00:20 EGPC 120020Z AUTO 27013KT 9999 -RA FEW005/// SCT031/// 07/05 Q1011 -RA W (270°) 15.0mph 7°C 5°C
11/01/19 23:50 EGPC 112350Z AUTO 26012KT 9999 -RA BKN033/// 07/05 Q1011 -RA W (260°) 13.8mph 7°C 5°C
11/01/19 23:20 EGPC 112320Z AUTO 25015KT 9999 -RA SCT004/// SCT020/// BKN036/// 07/06 Q1012 RERA -RA WSW (250°) 17.3mph 7°C 6°C
11/01/19 22:50 EGPC 112250Z AUTO 22012KT 9999 -RA SCT008/// SCT034/// 07/06 Q1012 -RA SW (220°) 13.8mph 7°C 6°C
11/01/19 21:50 EGPC 112150Z AUTO 19008KT 9999 -RA SCT025/// BKN038/// BKN047/// 07/06 Q1014 -RA S (190°) 9.2mph 7°C 6°C